• Join FlightAware (Why Join?)
  • Login
  • US Flag 
06:19AM EDT


 

Airport Tracker/Info


-or-


 

Live Flight TrackerFlight Track Log ✈ CPA254 ✈ 15-Jul-2013 ✈ EGLL / LHR - VHHH / HKG

Flight Track Log - Related Links

Times and Time Zones

All times are in EDT time to prevent confusion due to time zone crossing. See the CPA254 flight status page for this flight to view local times or setup timezone preferences in your user account.

Time Position Orientation Groundspeed Altitude Reporting Facility
EDT Latitude Longitude Course Direction KTS MPH feet Rate Location/Type
05:48PM 51.4770 -0.4840 268° West 194 223 200  Level FlightAware
05:49PM 51.4770 -0.5050 270° West 200 230 800 2,700 Climbing FlightAware
05:49PM 51.4769 -0.5449 270° West 207 238 2,000 2,760 Climbing FlightAware ADS-B
05:49PM 51.4775 -0.5494 282° West 212 244 2,100 840 Climbing FlightAware ADS-B
05:49PM 51.4784 -0.5549 285° West 214 246 2,100 720 Level FlightAware ADS-B
05:49PM 51.4801 -0.5614 293° West 218 251 2,200 1,500 Climbing FlightAware ADS-B
05:49PM 51.4857 -0.5788 297° West 232 267 2,500 1,740 Climbing FlightAware ADS-B
05:50PM 51.4938 -0.6026 299° West 241 277 3,000 2,340 Climbing FlightAware ADS-B
05:50PM 51.5008 -0.6235 298° West 243 280 3,600 2,580 Climbing FlightAware ADS-B
05:50PM 51.5062 -0.6392 299° West 242 278 4,000 2,520 Climbing FlightAware ADS-B
05:50PM 51.5087 -0.6448 306° West 243 280 4,200 2,520 Climbing FlightAware ADS-B
05:50PM 51.5109 -0.6489 311° West 244 281 4,300 1,680 Climbing FlightAware ADS-B
05:50PM 51.5137 -0.6531 317° Northwest 245 282 4,400 1,500 Climbing FlightAware ADS-B
05:50PM 51.5176 -0.6570 328° Northwest 245 282 4,500 2,220 Climbing FlightAware ADS-B
05:50PM 51.5216 -0.6596 338° Northwest 246 283 4,700 2,520 Climbing FlightAware ADS-B
05:50PM 51.5251 -0.6611 345° North 247 284 4,800 1,980 Climbing FlightAware ADS-B
05:50PM 51.5293 -0.6619 354° North 248 285 4,900 1,980 Climbing FlightAware ADS-B
05:50PM 51.5330 -0.6617 North 250 288 5,000 2,520 Climbing FlightAware ADS-B
05:51PM 51.5374 -0.6606 North 252 290 5,200 2,520 Climbing FlightAware ADS-B
05:51PM 51.5408 -0.6591 16° North 253 291 5,300 1,680 Climbing FlightAware ADS-B
05:51PM 51.5447 -0.6567 21° North 255 293 5,400 1,500 Climbing FlightAware ADS-B
05:51PM 51.5490 -0.6527 30° Northeast 257 296 5,500 1,500 Climbing FlightAware ADS-B
05:51PM 51.5523 -0.6489 36° Northeast 261 300 5,600 1,500 Climbing FlightAware ADS-B
05:51PM 51.5565 -0.6427 42° Northeast 267 307 5,700 1,680 Climbing FlightAware ADS-B
05:51PM 51.5589 -0.6382 50° Northeast 270 311 5,800 1,680 Climbing FlightAware ADS-B
05:51PM 51.5616 -0.6319 55° Northeast 275 316 5,900 1,500 Climbing FlightAware ADS-B
05:51PM 51.5640 -0.6246 62° Northeast 279 321 6,000 1,320 Climbing FlightAware ADS-B
05:51PM 51.5665 -0.6150 67° East 280 322 6,100 2,160 Climbing FlightAware ADS-B
05:51PM 51.5693 -0.6020 71° East 284 327 6,400 1,320 Climbing FlightAware ADS-B
05:51PM 51.5755 -0.5689 73° East 302 348 6,600 960 Climbing FlightAware ADS-B
05:52PM 51.5817 -0.5355 73° East 319 367 6,900 1,140 Climbing FlightAware ADS-B
05:52PM 51.5887 -0.4989 73° East 337 388 7,200 1,140 Climbing FlightAware ADS-B
05:52PM 51.5958 -0.4613 73° East 354 407 7,500 1,380 Climbing FlightAware ADS-B
05:52PM 51.6033 -0.4217 73° East 368 423 7,900 1,920 Climbing FlightAware ADS-B
05:53PM 51.6109 -0.3812 73° East 371 427 8,500 2,400 Climbing FlightAware ADS-B
05:53PM 51.6186 -0.3386 74° East 373 429 9,200 2,580 Climbing FlightAware ADS-B
05:53PM 51.6262 -0.2958 74° East 375 432 9,900 2,520 Climbing FlightAware ADS-B
05:54PM 51.6409 -0.2118 74° East 382 440 11,200 2,400 Climbing FlightAware ADS-B
05:54PM 51.6557 -0.1278 74° East 389 448 12,400 2,220 Climbing FlightAware ADS-B
05:55PM 51.6716 -0.0427 73° East 396 456 13,500 2,040 Climbing FlightAware ADS-B
05:55PM 51.6882 0.0442 73° East 408 470 14,500 1,980 Climbing FlightAware ADS-B
05:56PM 51.7054 0.1370 73° East 414 476 15,600 1,920 Climbing FlightAware ADS-B
05:56PM 51.7225 0.2293 73° East 424 488 16,500 1,920 Climbing FlightAware ADS-B
05:57PM 51.7398 0.3231 73° East 428 493 17,600 1,980 Climbing FlightAware ADS-B
05:57PM 51.7570 0.4167 73° East 434 499 18,600 1,980 Climbing FlightAware ADS-B
05:58PM 51.7748 0.5148 74° East 440 506 19,700 1,980 Climbing FlightAware ADS-B
05:58PM 51.7924 0.6122 74° East 445 512 20,700 1,740 Climbing FlightAware ADS-B
05:59PM 51.8100 0.7092 74° East 453 521 21,500 1,620 Climbing FlightAware ADS-B
05:59PM 51.8282 0.8107 74° East 461 531 22,400 1,620 Climbing FlightAware ADS-B
06:00PM 51.8468 0.9142 74° East 468 539 23,200 1,620 Climbing FlightAware ADS-B
06:00PM 51.8649 1.0164 74° East 474 545 24,100 1,500 Climbing FlightAware ADS-B
06:01PM 51.8840 1.1250 74° East 482 555 24,800 1,440 Climbing FlightAware ADS-B
06:01PM 51.9023 1.2297 74° East 488 562 25,600 1,500 Climbing FlightAware ADS-B
06:02PM 51.9219 1.3428 74° East 495 570 26,400 1,440 Climbing FlightAware ADS-B
06:03PM 51.9408 1.4513 74° East 502 578 27,100 1,320 Climbing FlightAware ADS-B
06:03PM 51.9610 1.5680 74° East 508 585 27,800 1,260 Climbing FlightAware
06:04PM 51.9949 1.7551 74° East 517 595 28,900 1,200 Climbing FlightAware ADS-B
06:04PM 52.0313 1.8623 74° East 500 575 29,500 1,140 Climbing FlightAware UK
06:04PM 52.0300 1.8580 74° East 527 606 29,500 1,260 Level FlightAware
06:05PM 52.0490 1.9091 59° Northeast 530 610 29,800 1,920 Climbing FlightAware ADS-B
06:05PM 52.0979 2.0497 60° Northeast 521 600 31,300 1,860 Climbing FlightAware ADS-B
06:06PM 52.1449 2.1927 60° Northeast 490 564 32,400 1,560 Climbing FlightAware UK
06:06PM 52.1690 2.2690 62° Northeast 516 594 33,000 1,200 Climbing FlightAware
06:07PM 52.1779 2.2958 62° Northeast 490 564 33,000  Level FlightAware UK
06:07PM 52.2104 2.3988 62° Northeast 486 559 33,000  Level FlightAware UK
06:07PM 52.2200 2.4290 62° Northeast 513 590 33,000  Level FlightAware
06:08PM 52.2610 2.5520 61° Northeast 514 592 33,000  Level FlightAware
06:09PM 52.3130 2.7020 61° Northeast 514 592 33,000  Level FlightAware
06:09PM 52.3206 2.7245 61° Northeast 488 562 33,000  Level FlightAware UK
06:09PM 52.3550 2.8263 61° Northeast 488 562 33,000  Level FlightAware UK
06:09PM 52.3630 2.8500 61° Northeast 514 592 33,000  Level FlightAware
06:10PM 52.4130 2.9990 61° Northeast 515 593 33,000  Level FlightAware
06:11PM 52.4572 3.1334 61° Northeast 488 562 33,000  Level FlightAware UK
06:11PM 52.4760 3.1910 61° Northeast 514 592 33,000  Level FlightAware
06:11PM 52.4916 3.2358 61° Northeast 488 562 33,000  Level FlightAware UK
06:12PM 52.5254 3.3386 61° Northeast 488 562 33,000  Level FlightAware UK
06:12PM 52.5330 3.3610 61° Northeast 515 593 33,000  Level FlightAware
06:13PM 52.5840 3.5170 62° Northeast 514 592 33,000  Level FlightAware
06:13PM 52.6268 3.6482 62° Northeast 488 562 33,000  Level FlightAware UK
06:13PM 52.6270 3.6490 62° Northeast 514 592 33,000  Level FlightAware
06:14PM 52.6810 3.8140 62° Northeast 514 592 33,000  Level FlightAware
06:15PM 52.7272 3.9585 62° Northeast 488 562 33,000  Level FlightAware UK
06:15PM 52.7350 3.9820 62° Northeast 513 590 33,000  Level FlightAware
06:15PM 52.7606 4.0621 62° Northeast 488 562 33,000  Level FlightAware UK
06:16PM 52.7940 4.1656 62° Northeast 488 562 33,000  Level FlightAware UK
06:16PM 52.7870 4.1440 62° Northeast 513 590 33,000  Level FlightAware
06:16PM 52.8470 4.3330 62° Northeast 508 585 33,000  Level FlightAware
06:17PM 52.8602 4.3733 62° Northeast 488 562 33,000  Level FlightAware UK
06:17PM 52.8928 4.4775 62° Northeast 488 562 33,000  Level FlightAware UK
06:17PM 52.8980 4.4950 62° Northeast 513 590 33,000  Level FlightAware
06:18PM 52.9410 4.6330 63° Northeast 512 589 33,000  Level FlightAware
06:19PM 52.9903 4.7914 63° Northeast 488 562 33,000  Level FlightAware UK
06:19PM 52.9900 4.7880 63° Northeast 512 589 33,000  Level FlightAware
06:19PM 53.0230 4.8970 63° Northeast 512 589 33,000  Level FlightAware
06:20PM 53.0730 5.0570 62° Northeast 512 589 33,000  Level FlightAware
06:21PM 53.1160 5.1980 62° Northeast 511 588 33,000  Level FlightAware
06:21PM 53.1199 5.2107 62° Northeast 488 562 33,000  Level FlightAware UK
06:21PM 53.1525 5.3156 62° Northeast 1 1 33,000  Level FlightAware UK
06:21PM 53.1580 5.3360 62° Northeast 510 587 33,000  Level FlightAware
06:22PM 53.2070 5.4960 63° Northeast 510 587 33,000  Level FlightAware
06:23PM 53.2473 5.6313 63° Northeast 486 559 33,000  Level FlightAware UK
06:23PM 53.2540 5.6530 63° Northeast 511 588 33,000  Level FlightAware
06:23PM 53.2960 5.7930 63° Northeast 510 587 33,000  Level FlightAware
06:24PM 53.3370 5.9320 63° Northeast 511 588 33,000  Level FlightAware
06:24PM 53.3416 5.9482 63° Northeast 488 562 33,000  Level FlightAware UK
06:25PM 53.3732 6.0550 63° Northeast 488 562 33,000  Level FlightAware UK
06:25PM 53.3790 6.0760 63° Northeast 510 587 33,000  Level FlightAware
06:25PM 53.4240 6.2270 63° Northeast 509 586 33,000  Level FlightAware
06:26PM 53.4361 6.2669 63° Northeast 488 562 33,000  Level FlightAware UK
06:26PM 53.4665 6.3732 63° Northeast 488 562 33,000  Level FlightAware UK
06:26PM 53.4700 6.3870 63° Northeast 509 586 33,000  Level FlightAware
06:27PM 53.5110 6.5260 64° Northeast 508 585 33,000  Level FlightAware
06:28PM 53.5597 6.6918 64° Northeast 1 1 33,000  Level FlightAware UK
06:28PM 53.5570 6.6860 64° Northeast 509 586 33,000  Level FlightAware
06:28PM 53.5898 6.7987 64° Northeast 1 1 33,000  Level FlightAware UK
06:28PM 53.6000 6.8360 64° Northeast 509 586 33,000  Level FlightAware
06:29PM 53.6450 6.9930 64° Northeast 508 585 33,000  Level FlightAware
06:30PM 53.6850 7.1370 65° Northeast 509 586 33,000  Level FlightAware
06:30PM 53.7290 7.2930 64° Northeast 508 585 33,000  Level FlightAware
06:31PM 53.7580 7.3960 65° Northeast 509 586 33,000  Level FlightAware
06:32PM 53.8030 7.5600 65° Northeast 508 585 33,000  Level FlightAware
06:32PM 53.8360 7.6810 65° Northeast 509 586 33,000  Level FlightAware
06:33PM 53.8810 7.8420 65° Northeast 509 586 33,000  Level FlightAware
06:34PM 53.9200 7.9870 65° Northeast 508 585 33,000  Level FlightAware
06:34PM 53.9600 8.1370 66° East 507 583 33,000  Level FlightAware
06:35PM 54.0020 8.2890 65° Northeast 507 583 33,000  Level FlightAware
06:36PM 54.0440 8.4500 66° East 507 583 33,000  Level FlightAware
06:36PM 54.0840 8.5990 65° Northeast 508 585 33,000  Level FlightAware
06:37PM 54.1250 8.7540 66° East 508 585 33,000  Level FlightAware
06:38PM 54.1600 8.8910 66° East 507 583 33,000  Level FlightAware
06:38PM 54.1930 9.0150 65° Northeast 507 583 33,000  Level FlightAware
06:39PM 54.2380 9.1910 66° East 507 583 33,000  Level FlightAware
06:40PM 54.2720 9.3240 66° East 506 582 33,000  Level FlightAware
06:40PM 54.3110 9.4740 66° East 506 582 33,000  Level FlightAware
06:41PM 54.3460 9.6140 67° East 505 581 33,000  Level FlightAware
06:42PM 54.3830 9.7600 66° East 503 579 33,000  Level FlightAware
06:43PM 54.4230 9.9210 67° East 502 578 33,000  Level FlightAware
06:43PM 54.4640 10.0820 66° East 502 578 33,000  Level FlightAware
06:44PM 54.5020 10.2280 66° East 502 578 33,000  Level FlightAware
06:45PM 54.5460 10.3960 66° East 502 578 33,000  Level FlightAware
06:46PM 54.5900 10.5700 66° East 498 573 33,000  Level FlightAware
06:47PM 54.6540 10.8260 67° East 503 579 33,000  Level FlightAware
06:47PM 54.6980 11.0010 66° East 502 578 33,000  Level FlightAware
06:48PM 54.7350 11.1500 67° East 502 578 33,000  Level FlightAware
06:49PM 54.7720 11.3000 67° East 503 579 33,000  Level FlightAware
06:50PM 54.8140 11.4710 67° East 501 577 33,000  Level FlightAware
06:50PM 54.8500 11.6190 67° East 500 575 33,000  Level FlightAware
06:51PM 54.8860 11.7700 67° East 499 574 33,000  Level FlightAware
06:52PM 54.9250 11.9310 67° East 499 574 33,000  Level FlightAware
06:52PM 54.9530 12.0500 68° East 499 574 33,000  Level FlightAware
06:53PM 54.9910 12.2070 67° East 499 574 33,000  Level FlightAware
06:54PM 55.0290 12.3710 68° East 498 573 33,000  Level FlightAware
06:54PM 55.0570 12.4900 68° East 499 574 33,000  Level FlightAware
06:55PM 55.0950 12.6540 68° East 501 577 33,000  Level FlightAware
06:56PM 55.1340 12.8230 68° East 501 577 33,000  Level FlightAware
06:56PM 55.1670 12.9680 68° East 503 579 33,000  Level FlightAware
06:57PM 55.2040 13.1330 68° East 501 577 33,000  Level FlightAware
06:58PM 55.2380 13.2840 68° East 501 577 33,000  Level FlightAware
06:58PM 55.2750 13.4510 69° East 499 574 33,000  Level FlightAware
06:59PM 55.3080 13.6010 69° East 499 574 33,000  Level FlightAware
07:00PM 55.3350 13.7230 69° East 499 574 33,000  Level FlightAware
07:01PM 55.4110 14.0700 69° East 499 574 33,000  Level FlightAware
07:02PM 55.4470 14.2390 69° East 500 575 33,000  Level FlightAware
07:03PM 55.4800 14.3920 69° East 495 570 33,000  Level FlightAware
07:03PM 55.5070 14.5240 70° East 493 567 33,000  Level FlightAware
07:04PM 55.5440 14.6960 69° East 494 568 33,000  Level FlightAware
07:05PM 55.5750 14.8460 70° East 493 567 33,000  Level FlightAware
07:05PM 55.6100 15.0190 70° East 492 566 33,000  Level FlightAware
07:06PM 55.6410 15.1680 70° East 492 566 33,000  Level FlightAware
07:07PM 55.6760 15.3390 70° East 491 565 33,000  Level FlightAware
07:07PM 55.7070 15.4920 70° East 494 568 33,000  Level FlightAware
07:08PM 55.7330 15.6240 71° East 494 568 33,000  Level FlightAware
07:09PM 55.7640 15.7780 70° East 495 570 33,000  Level FlightAware
07:09PM 55.7970 15.9480 71° East 495 570 33,000  Level FlightAware
07:10PM 55.8200 16.0660 71° East 495 570 33,000  Level FlightAware
07:11PM 55.8630 16.2870 71° East 494 568 33,000  Level FlightAware
07:12PM 55.8940 16.4480 71° East 495 570 33,000  Level FlightAware
07:12PM 55.9280 16.6260 71° East 496 571 33,000  Level FlightAware
07:13PM 55.9570 16.7800 71° East 496 571 33,000  Level FlightAware
07:14PM 55.9900 16.9550 71° East 497 572 33,000  Level FlightAware
07:14PM 56.0190 17.1110 72° East 496 571 33,000  Level FlightAware
07:16PM 56.0710 17.3970 72° East 494 568 33,000  Level FlightAware
07:16PM 56.1030 17.5710 72° East 492 566 33,000  Level FlightAware
07:17PM 56.1340 17.7470 72° East 494 568 33,000  Level FlightAware
07:18PM 56.1620 17.9020 72° East 495 570 33,000  Level FlightAware
07:19PM 56.1920 18.0770 73° East 496 571 33,000  Level FlightAware
07:19PM 56.2130 18.2420 77° East 501 577 33,000  Level FlightAware
07:20PM 56.2320 18.4250 79° East 503 579 33,000  Level FlightAware
07:21PM 56.2460 18.5690 80° East 503 579 33,000  Level FlightAware
07:21PM 56.2610 18.7280 80° East 502 578 33,000  Level FlightAware
07:22PM 56.2780 18.9090 80° East 502 578 33,000  Level FlightAware
07:23PM 56.2930 19.0690 80° East 502 578 33,000  Level FlightAware
07:23PM 56.3070 19.2180 80° East 503 579 33,000  Level FlightAware
07:24PM 56.3240 19.3990 80° East 503 579 33,000  Level FlightAware
07:25PM 56.3380 19.5610 81° East 502 578 33,000  Level FlightAware
07:25PM 56.3510 19.7090 81° East 504 580 33,000  Level FlightAware
07:26PM 56.3660 19.8810 81° East 504 580 33,000  Level FlightAware
07:27PM 56.3810 20.0560 81° East 504 580 33,000  Level FlightAware
07:27PM 56.3950 20.2280 82° East 505 581 33,000  Level FlightAware
07:28PM 56.4110 20.4150 81° East 505 581 33,000  Level FlightAware
07:29PM 56.4240 20.5810 82° East 505 581 33,000  Level FlightAware
07:29PM 56.4380 20.7540 82° East 502 578 33,000  Level FlightAware
07:30PM 56.4560 20.9870 82° East 502 578 33,000  Level FlightAware
07:31PM 56.4730 21.2080 82° East 500 575 33,000  Level FlightAware
07:32PM 56.4850 21.3750 83° East 500 575 33,000  Level FlightAware
07:33PM 56.4980 21.5560 83° East 500 575 33,000  Level FlightAware
07:33PM 56.5110 21.7320 82° East 500 575 33,000  Level FlightAware
07:34PM 56.5220 21.8960 83° East 500 575 33,000  Level FlightAware
07:35PM 56.5340 22.0720 83° East 500 575 33,000  Level FlightAware
07:35PM 56.5450 22.2300 83° East 500 575 33,000  Level FlightAware
07:36PM 56.5570 22.4160 83° East 501 577 33,000  Level FlightAware
07:37PM 56.5650 22.5950 85° East 504 580 33,000  Level FlightAware
07:37PM 56.5700 22.7730 87° East 504 580 33,000  Level FlightAware
07:38PM 56.5740 22.9490 88° East 503 579 33,000  Level FlightAware
07:39PM 56.5780 23.1140 87° East 502 578 33,000  Level FlightAware
07:40PM 56.5810 23.2860 88° East 504 580 33,000  Level FlightAware
07:40PM 56.5850 23.4520 87° East 505 581 33,000  Level FlightAware
07:41PM 56.5870 23.6170 89° East 507 583 33,000  Level FlightAware
07:41PM 56.5900 23.7710 88° East 508 585 33,000  Level FlightAware
07:42PM 56.5930 23.9580 88° East 508 585 33,000  Level FlightAware
07:43PM 56.5950 24.1290 89° East 507 583 33,000  Level FlightAware
07:43PM 56.5970 24.2980 89° East 507 583 33,000  Level FlightAware
07:44PM 56.5990 24.4860 89° East 507 583 33,000  Level FlightAware
07:45PM 56.6010 24.7280 89° East 505 581 33,000  Level FlightAware
07:46PM 56.5950 24.9500 93° East 508 585 33,000  Level FlightAware
07:47PM 56.5840 25.1380 96° East 508 585 33,000  Level FlightAware
07:47PM 56.5730 25.3030 97° East 508 585 33,000  Level FlightAware
07:48PM 56.5620 25.4780 96° East 508 585 33,000  Level FlightAware
07:49PM 56.5530 25.6290 96° East 507 583 33,000  Level FlightAware
07:49PM 56.5410 25.8030 97° East 508 585 33,000  Level FlightAware
07:50PM 56.5300 25.9680 97° East 508 585 33,000  Level FlightAware
07:51PM 56.5170 26.1700 97° East 505 581 33,000  Level FlightAware
07:52PM 56.5010 26.4000 97° East 505 581 33,000  Level FlightAware
07:53PM 56.4870 26.5860 98° East 504 580 33,000  Level FlightAware
07:53PM 56.4740 26.7670 97° East 503 579 33,000  Level FlightAware
07:54PM 56.4570 26.9970 98° East 502 578 33,000  Level FlightAware
07:55PM 56.4380 27.2410 98° East 502 578 33,000  Level FlightAware
07:56PM 56.4290 27.3670 97° East 502 578 33,000  Level FlightAware
07:57PM 56.4070 27.6420 98° East 500 575 33,000  Level FlightAware
07:57PM 56.3950 27.7850 99° East 499 574 33,000  Level FlightAware
07:58PM 56.3750 28.0280 98° East 499 574 33,000  Level FlightAware
07:59PM 56.3580 28.2220 99° East 499 574 33,000  Level FlightAware
08:00PM 56.3450 28.3720 99° East 499 574 33,000  Level FlightAware
08:01PM 56.3240 28.6020 99° East 498 573 33,000  Level FlightAware
08:01PM 56.3070 28.7890 99° East 498 573 33,000  Level FlightAware
08:02PM 56.2940 28.9290 99° East 496 571 33,000  Level FlightAware
08:03PM 56.2780 29.0920 100° East 496 571 33,000  Level FlightAware
08:03PM 56.2650 29.2350 99° East 497 572 33,000  Level FlightAware
08:04PM 56.2520 29.3740 99° East 497 572 33,000  Level FlightAware
08:05PM 56.2380 29.5410 99° East 497 572 33,000  Level FlightAware
08:05PM 56.2260 29.6730 99° East 497 572 33,000  Level FlightAware
08:06PM 56.2150 29.7980 99° East 497 572 33,000  Level FlightAware
08:07PM 56.2000 29.9650 99° East 497 572 33,000  Level FlightAware
08:07PM 56.1890 30.0890 99° East 497 572 33,000  Level FlightAware
08:08PM 56.1750 30.2560 98° East 497 572 33,000  Level FlightAware
08:09PM 56.1630 30.3810 100° East 497 572 33,000  Level FlightAware
08:09PM 56.1520 30.5090 99° East 497 572 33,000  Level FlightAware
08:10PM 56.1370 30.6750 99° East 497 572 33,000  Level FlightAware
08:11PM 56.1210 30.8620 99° East 497 572 33,000  Level FlightAware
08:12PM 56.1100 30.9870 99° East 497 572 33,000  Level FlightAware
08:12PM 56.0380 31.3920 108° East 487 560 33,000  Level FlightAware
08:13PM 56.0200 31.5610 101° East 487 560 33,000  Level FlightAware
08:14PM 55.9950 31.7680 102° East 489 563 33,000  Level FlightAware
08:15PM 55.9750 31.9420 102° East 485 558 33,000  Level FlightAware
08:15PM 55.9550 32.1140 102° East 485 558 33,000  Level FlightAware
08:16PM 55.9360 32.2730 102° East 482 555 33,000  Level FlightAware
08:17PM 55.9180 32.4270 102° East 480 552 33,000  Level FlightAware
08:17PM 55.8970 32.5970 102° East 478 550 33,000  Level FlightAware
08:18PM 55.8770 32.7520 103° East 472 543 33,000  Level FlightAware
08:19PM 55.8560 32.9020 104° East 467 537 33,000  Level FlightAware
08:20PM 55.8030 33.0460 123° Southeast 468 539 33,000  Level FlightAware
08:20PM 55.7410 33.1760 130° Southeast 468 539 33,000  Level FlightAware
08:21PM 55.6840 33.2930 131° Southeast 468 539 33,000  Level FlightAware
08:22PM 55.6210 33.4230 131° Southeast 466 536 33,000  Level FlightAware
08:22PM 55.5720 33.5240 131° Southeast 467 537 33,000  Level FlightAware
08:23PM 55.5150 33.6390 131° Southeast 466 536 33,000  Level FlightAware
08:24PM 55.4520 33.7680 131° Southeast 467 537 33,000  Level FlightAware
08:24PM 55.4110 33.8540 130° Southeast 468 539 33,000  Level FlightAware
08:25PM 55.3480 33.9860 130° Southeast 468 539 33,000  Level FlightAware
08:26PM 55.2860 34.1150 130° Southeast 464 534 33,000  Level FlightAware
08:26PM 55.2300 34.2310 130° Southeast 465 535 33,000  Level FlightAware
08:27PM 55.1680 34.3590 130° Southeast 467 537 33,000  Level FlightAware
08:28PM 55.1120 34.4740 130° Southeast 469 540 33,000  Level FlightAware
08:29PM 55.0460 34.6020 132° Southeast 471 542 33,000  Level FlightAware
08:29PM 54.9890 34.7160 131° Southeast 470 541 33,000  Level FlightAware
08:30PM 54.9260 34.8440 131° Southeast 471 542 33,000  Level FlightAware
08:31PM 54.8690 34.9590 131° Southeast 472 543 33,000  Level FlightAware
08:31PM 54.8190 35.0590 131° Southeast 475 547 33,000  Level FlightAware
08:32PM 54.7630 35.1770 129° Southeast 479 551 33,000  Level FlightAware
08:33PM 54.7380 35.3400 105° East 477 549 33,000  Level FlightAware
08:33PM 54.7380 35.5110 90° East 473 544 33,000  Level FlightAware
08:34PM 54.7380 35.6610 90° East 472 543 33,000  Level FlightAware
08:35PM 54.7380 35.8120 90° East 472 543 33,000  Level FlightAware
08:35PM 54.7380 35.9630 90° East 474 545 33,000  Level FlightAware
08:36PM 54.7370 36.1130 91° East 474 545 33,000  Level FlightAware
08:37PM 54.7360 36.2450 91° East 473 544 33,000  Level FlightAware
08:37PM 54.7350 36.4330 90° East 473 544 33,000  Level FlightAware
08:38PM 54.7340 36.5560 91° East 473 544 33,000  Level FlightAware
08:39PM 54.7200 36.7150 99° East 468 539 33,000 240 Level FlightAware
08:39PM 54.6950 36.8580 107° East 473 544 33,400 1,020 Climbing FlightAware
08:40PM 54.6650 37.0200 108° East 472 543 34,500 1,080 Climbing FlightAware
08:41PM 54.6380 37.1640 108° East 479 551 35,000 360 Climbing FlightAware
08:41PM 54.6100 37.3070 109° East 477 549 35,000  Level FlightAware
08:42PM 54.5660 37.4700 115° Southeast 479 551 35,000  Level FlightAware
08:43PM 54.5290 37.5980 116° Southeast 479 551 35,000  Level FlightAware
08:44PM 54.4890 37.7350 117° Southeast 480 552 35,000  Level FlightAware
08:44PM 54.4500 37.8720 116° Southeast 477 549 35,000  Level FlightAware
08:45PM 54.4120 38.0070 116° Southeast 475 547 35,000  Level FlightAware
08:46PM 54.3740 38.1410 116° Southeast 472 543 35,000  Level FlightAware
08:46PM 54.3370 38.2970 112° Southeast 476 548 35,000  Level FlightAware
08:47PM 54.3160 38.4260 106° East 476 548 35,000  Level FlightAware
08:48PM 54.2910 38.5880 105° East 476 548 35,000  Level FlightAware
08:48PM 54.2650 38.7490 105° East 475 547 35,000  Level FlightAware
08:49PM 54.2410 38.8960 106° East 473 544 35,000  Level FlightAware
08:50PM 54.2180 39.0580 104° East 473 544 35,000  Level FlightAware
08:50PM 54.1970 39.2030 104° East 471 542 35,000  Level FlightAware
08:51PM 54.1770 39.3460 103° East 470 541 35,000  Level FlightAware
08:52PM 54.1560 39.4890 104° East 471 542 35,000  Level FlightAware
08:52PM 54.1350 39.6310 104° East 470 541 35,000  Level FlightAware
08:53PM 54.1130 39.7760 104° East 470 541 35,000  Level FlightAware
08:54PM 54.0920 39.9210 104° East 472 543 35,000  Level FlightAware
08:55PM 54.0670 40.0820 105° East 475 547 35,000  Level FlightAware
08:55PM 54.0420 40.2450 105° East 477 549 35,000  Level FlightAware
08:56PM 54.0200 40.3890 105° East 478 550 35,000  Level FlightAware
08:57PM 53.9940 40.5540 105° East 481 554 35,000  Level FlightAware
08:57PM 53.9770 40.6630 105° East 481 554 35,000  Level FlightAware
08:58PM 53.9510 40.8270 105° East 483 556 35,000  Level FlightAware
08:59PM 53.9280 40.9740 105° East 484 557 35,000  Level FlightAware
08:59PM 53.9080 41.1010 105° East 484 557 35,000  Level FlightAware
09:00PM 53.8820 41.2660 105° East 481 554 35,000  Level FlightAware
09:01PM 53.8590 41.4100 105° East 472 543 35,000  Level FlightAware
09:01PM 53.8340 41.5690 105° East 471 542 35,000  Level FlightAware
09:02PM 53.8110 41.7100 105° East 469 540 35,000  Level FlightAware
09:03PM 53.7870 41.8510 106° East 468 539 35,000  Level FlightAware
09:03PM 53.7640 41.9890 106° East 466 536 35,000  Level FlightAware
09:04PM 53.7410 42.1310 105° East 466 536 35,000  Level FlightAware
09:05PM 53.7170 42.2710 106° East 465 535 35,000  Level FlightAware
09:05PM 53.6950 42.4050 105° East 466 536 35,000  Level FlightAware
09:06PM 53.6630 42.5870 106° East 466 536 35,000  Level FlightAware
09:07PM 53.6480 42.7300 100° East 474 545 35,000  Level FlightAware
09:08PM 53.6430 42.9000 93° East 476 548 35,000  Level FlightAware
09:08PM 53.6390 43.0290 93° East 477 549 35,000  Level FlightAware
09:09PM 53.6350 43.1780 93° East 481 554 35,000  Level FlightAware
09:10PM 53.6290 43.3270 94° East 484 557 35,000  Level FlightAware
09:10PM 53.6240 43.4810 93° East 485 558 35,000  Level FlightAware
09:11PM 53.6180 43.6440 93° East 486 559 35,000  Level FlightAware
09:12PM 53.6120 43.8110 93° East 483 556 35,000  Level FlightAware
09:12PM 53.6060 43.9610 94° East 481 554 35,000  Level FlightAware
09:13PM 53.6010 44.0910 94° East 478 550 35,000  Level FlightAware
09:14PM 53.5960 44.2580 93° East 478 550 35,000  Level FlightAware
09:14PM 53.5920 44.4060 93° East 479 551 35,000  Level FlightAware
09:15PM 53.5870 44.5720 93° East 477 549 35,000  Level FlightAware
09:16PM 53.5830 44.7210 93° East 474 545 35,000  Level FlightAware
09:17PM 53.5770 44.8870 93° East 472 543 35,000  Level FlightAware
09:17PM 53.5730 45.0320 93° East 472 543 35,000  Level FlightAware
09:18PM 53.5650 45.1750 95° East 471 542 35,000  Level FlightAware
09:19PM 53.5340 45.3340 108° East 472 543 35,000  Level FlightAware
09:19PM 53.5000 45.4700 113° Southeast 473 544 35,000  Level FlightAware
09:20PM 53.4660 45.6050 113° Southeast 472 543 35,000  Level FlightAware
09:21PM 53.4330 45.7380 113° Southeast 471 542 35,000  Level FlightAware
09:21PM 53.3950 45.8910 113° Southeast 472 543 35,000  Level FlightAware
09:22PM 53.3650 46.0080 113° Southeast 472 543 35,000  Level FlightAware
09:23PM 53.3310 46.1410 113° Southeast 472 543 35,000  Level FlightAware
09:23PM 53.2940 46.2890 113° Southeast 473 544 35,000  Level FlightAware
09:24PM 53.2550 46.4390 113° Southeast 474 545 35,000  Level FlightAware
09:25PM 53.2200 46.5740 113° Southeast 477 549 35,000  Level FlightAware
09:25PM 53.1840 46.7100 114° Southeast 479 551 35,000  Level FlightAware
09:26PM 53.1440 46.8620 114° Southeast 478 550 35,000  Level FlightAware
09:27PM 53.1130 46.9790 114° Southeast 477 549 35,000  Level FlightAware
09:27PM 53.0780 47.1130 113° Southeast 478 550 35,000  Level FlightAware
09:28PM 53.0420 47.2480 114° Southeast 478 550 35,000  Level FlightAware
09:29PM 53.0060 47.3810 114° Southeast 478 550 35,000  Level FlightAware
09:29PM 52.9700 47.5130 114° Southeast 479 551 35,000  Level FlightAware
09:30PM 52.9340 47.6450 114° Southeast 480 552 35,000  Level FlightAware
09:31PM 52.8970 47.7820 114° Southeast 480 552 35,000  Level FlightAware
09:32PM 52.8560 47.9320 114° Southeast 481 554 35,000  Level FlightAware
09:32PM 52.8190 48.0640 115° Southeast 481 554 35,000  Level FlightAware
09:33PM 52.7770 48.2140 115° Southeast 482 555 35,000  Level FlightAware
09:34PM 52.7350 48.3650 115° Southeast 481 554 35,000  Level FlightAware
09:34PM 52.7070 48.4640 115° Southeast 478 550 35,000  Level FlightAware
09:35PM 52.6650 48.6130 115° Southeast 481 554 35,000  Level FlightAware
09:36PM 52.6280 48.7450 115° Southeast 482 555 35,000  Level FlightAware
09:36PM 52.5900 48.8780 115° Southeast 483 556 35,000  Level FlightAware
09:37PM 52.5480 49.0250 115° Southeast 482 555 35,000  Level FlightAware
09:38PM 52.5050 49.1760 115° Southeast 481 554 35,000  Level FlightAware
09:38PM 52.4680 49.3050 115° Southeast 482 555 35,000  Level FlightAware
09:39PM 52.4330 49.4230 116° Southeast 482 555 35,000  Level FlightAware
09:40PM 52.3950 49.5540 115° Southeast 484 557 35,000  Level FlightAware
09:40PM 52.3510 49.7020 116° Southeast 484 557 35,000  Level FlightAware
09:41PM 52.3170 49.8180 116° Southeast 486 559 35,000  Level FlightAware
09:42PM 52.2780 49.9490 116° Southeast 487 560 35,000  Level FlightAware
09:43PM 52.2250 50.1270 116° Southeast 487 560 35,000  Level FlightAware
09:44PM 52.1690 50.3110 116° Southeast 487 560 35,000  Level FlightAware
09:44PM 52.1230 50.4570 117° Southeast 487 560 35,000  Level FlightAware
09:45PM 52.0590 50.5600 135° Southeast 486 559 35,000  Level FlightAware
09:46PM 51.9860 50.6430 145° Southeast 484 557 35,000  Level FlightAware
09:46PM 51.9100 50.7260 146° Southeast 484 557 35,000  Level FlightAware
09:47PM 51.8280 50.8160 146° Southeast 487 560 35,000  Level FlightAware
09:48PM 51.7460 50.9060 146° Southeast 488 562 35,000  Level FlightAware
09:48PM 51.6710 50.9890 146° Southeast 489 563 35,000  Level FlightAware
09:49PM 51.5940 51.0710 147° Southeast 492 566 35,000  Level FlightAware
09:50PM 51.5190 51.1510 146° Southeast 495 570 35,000  Level FlightAware
09:51PM 51.4410 51.2580 139° Southeast 506 582 35,000  Level FlightAware
09:51PM 51.3960 51.3820 120° Southeast 510 587 35,000  Level FlightAware
09:52PM 51.3480 51.5330 117° Southeast 508 585 35,000  Level FlightAware
09:53PM 51.3060 51.6650 117° Southeast 508 585 35,000  Level FlightAware
09:53PM 51.2820 51.7370 118° Southeast 507 583 35,000  Level FlightAware
09:54PM 51.3060 51.6650 298° West 507 583 35,000  Level FlightAware
09:56PM 51.1200 52.2290 118° Southeast 506 582 35,000  Level FlightAware
09:56PM 51.0760 52.3610 118° Southeast 504 580 35,000  Level FlightAware
09:57PM 51.0410 52.4660 118° Southeast 505 581 35,000  Level FlightAware
09:58PM 50.9820 52.6410 118° Southeast 507 583 35,000  Level FlightAware
09:59PM 50.9210 52.8220 118° Southeast 509 586 35,000  Level FlightAware
09:59PM 50.8800 52.9410 119° Southeast 509 586 35,000  Level FlightAware
10:01PM 50.7470 53.3350 98° East 510 587 35,000  Level FlightAware
10:02PM 50.8383 53.4202 98° East  Level Estimated
10:02PM 50.6880 53.4980 120° Southeast 512 589 35,000  Level FlightAware
10:03PM 50.6310 53.6620 119° Southeast 513 590 35,000  Level FlightAware
10:03PM 50.5870 53.7860 119° Southeast 513 590 35,000  Level FlightAware
10:04PM 50.5170 53.9830 119° Southeast 515 593 35,000  Level FlightAware
10:05PM 50.4720 54.1080 119° Southeast 516 594 35,000  Level FlightAware
10:06PM 50.3700 54.3920 119° Southeast 520 598 35,000  Level FlightAware
10:07PM 50.3250 54.5240 118° Southeast 522 601 35,000  Level FlightAware
10:08PM 50.2990 54.6740 105° East 524 603 35,000  Level FlightAware
10:09PM 50.3050 54.8870 87° East 524 603 35,000  Level FlightAware
10:09PM 50.3040 55.0470 90° East 524 603 35,000  Level FlightAware
10:10PM 50.3020 55.2000 91° East 524 603 35,000  Level FlightAware
10:11PM 50.3000 55.3820 91° East 524 603 35,000  Level FlightAware
10:12PM 50.2970 55.5920 91° East 522 601 35,000  Level FlightAware
10:13PM 50.2940 55.7810 91° East 521 600 35,000  Level FlightAware
10:13PM 50.2920 55.9350 91° East 521 600 35,000  Level FlightAware
10:14PM 50.2890 56.0570 92° East 521 600 35,000  Level FlightAware
10:15PM 50.2830 56.3710 92° East 518 596 35,000  Level FlightAware
10:16PM 50.2800 56.5110 92° East 517 595 35,000  Level FlightAware
10:17PM 50.2750 56.7370 92° East 516 594 35,000  Level FlightAware
10:18PM 50.2710 56.8740 93° East 517 595 35,000  Level FlightAware
10:19PM 50.2650 57.1110 92° East 517 595 35,000  Level FlightAware
10:19PM 50.2620 57.2520 92° East 517 595 35,000  Level FlightAware
10:21PM 50.2540 57.5830 92° East 517 595 35,000  Level FlightAware
10:21PM 50.2500 57.7250 92° East 517 595 35,000  Level FlightAware
10:22PM 50.2460 57.9140 92° East 517 595 35,000  Level FlightAware
10:23PM 50.2410 58.0910 92° East 517 595 35,000  Level FlightAware
10:24PM 50.2390 58.1990 92° East 517 595 35,000  Level FlightAware
10:25PM 50.2350 58.3550 92° East 517 595 35,000  Level FlightAware
10:25PM 50.2330 58.4690 92° East 517 595 35,000  Level FlightAware
10:27PM 50.2270 58.7360 92° East 517 595 35,000  Level FlightAware
10:27PM 50.2240 58.8500 92° East 517 595 35,000  Level FlightAware
10:28PM 50.2200 59.0410 92° East 517 595 35,000  Level FlightAware
10:29PM 50.2170 59.1930 92° East 517 595 35,000  Level FlightAware
10:30PM 50.2140 59.3110 92° East 517 595 35,000  Level FlightAware
10:30PM 50.2100 59.4630 92° East 517 595 35,000  Level FlightAware
10:31PM 50.2080 59.5770 92° East 517 595 35,000  Level FlightAware
10:32PM 50.2040 59.7300 92° East 517 595 35,000  Level FlightAware
10:32PM 50.2020 59.8440 92° East 517 595 35,000  Level FlightAware
10:35PM 50.1389 60.2626 103° East  Level Estimated
10:36PM 50.1090 60.4569 103° East  Level Estimated
10:37PM 50.0788 60.6510 104° East  Level Estimated
10:38PM 50.0483 60.8448 104° East  Level Estimated
10:39PM 50.0175 61.0384 104° East  Level Estimated
10:40PM 49.9864 61.2317 104° East  Level Estimated
10:41PM 49.9549 61.4248 104° East  Level Estimated
10:42PM 49.9231 61.6176 104° East  Level Estimated
10:43PM 49.8910 61.8102 104° East  Level Estimated
10:44PM 49.8585 62.0025 105° East  Level Estimated
10:45PM 49.8258 62.1945 105° East  Level Estimated
10:46PM 49.7927 62.3863 105° East  Level Estimated
10:47PM 49.7593 62.5778 105° East  Level Estimated
10:48PM 49.7256 62.7691 105° East  Level Estimated
10:49PM 49.6916 62.9601 105° East  Level Estimated
10:50PM 49.6573 63.1508 105° East  Level Estimated
10:51PM 49.6227 63.3413 106° East  Level Estimated
10:52PM 49.5877 63.5315 106° East  Level Estimated
10:53PM 49.5524 63.7214 106° East  Level Estimated
10:54PM 49.5169 63.9110 106° East  Level Estimated
10:55PM 49.4810 64.1004 106° East  Level Estimated
10:56PM 49.4448 64.2894 106° East  Level Estimated
10:57PM 49.4083 64.4782 106° East  Level Estimated
10:58PM 49.3715 64.6668 107° East  Level Estimated
10:59PM 49.3344 64.8550 107° East  Level Estimated
11:00PM 49.2970 65.0429 107° East  Level Estimated
11:01PM 49.2592 65.2306 107° East  Level Estimated
11:02PM 49.2212 65.4180 107° East  Level Estimated
11:03PM 49.1829 65.6051 107° East  Level Estimated
11:04PM 49.1442 65.7919 107° East  Level Estimated
11:05PM 49.1053 65.9784 108° East  Level Estimated
11:06PM 49.0661 66.1646 108° East  Level Estimated
11:07PM 49.0266 66.3505 108° East  Level Estimated
11:08PM 48.9867 66.5361 108° East  Level Estimated
11:09PM 48.9466 66.7214 108° East  Level Estimated
11:10PM 48.9062 66.9064 108° East  Level Estimated
11:11PM 48.8655 67.0912 108° East  Level Estimated
11:12PM 48.8245 67.2756 109° East  Level Estimated
11:13PM 48.7831 67.4597 109° East  Level Estimated
11:14PM 48.7415 67.6435 109° East  Level Estimated
11:15PM 48.6996 67.8270 109° East  Level Estimated
11:16PM 48.6575 68.0102 109° East  Level Estimated
11:17PM 48.6150 68.1931 109° East  Level Estimated
11:18PM 48.5722 68.3757 109° East  Level Estimated
11:19PM 48.5292 68.5580 110° East  Level Estimated
11:20PM 48.4859 68.7400 110° East  Level Estimated
11:21PM 48.4422 68.9216 110° East  Level Estimated
11:22PM 48.3983 69.1030 110° East  Level Estimated
11:23PM 48.3541 69.2840 110° East  Level Estimated
11:24PM 48.3097 69.4647 110° East  Level Estimated
11:25PM 48.2649 69.6451 110° East  Level Estimated
11:26PM 48.2198 69.8252 111° Southeast  Level Estimated
11:27PM 48.1745 70.0049 111° Southeast  Level Estimated
11:28PM 48.1289 70.1844 111° Southeast  Level Estimated
11:29PM 48.0830 70.3635 111° Southeast  Level Estimated
11:30PM 48.0369 70.5423 111° Southeast  Level Estimated
11:31PM 47.9905 70.7208 111° Southeast  Level Estimated
11:32PM 47.9437 70.8990 111° Southeast  Level Estimated
11:33PM 47.8968 71.0768 111° Southeast  Level Estimated
11:34PM 47.8495 71.2543 112° Southeast  Level Estimated
11:35PM 47.8020 71.4315 112° Southeast  Level Estimated
11:36PM 47.7542 71.6084 112° Southeast  Level Estimated
11:37PM 47.7061 71.7849 112° Southeast  Level Estimated
11:38PM 47.6577 71.9611 112° Southeast  Level Estimated
11:39PM 47.6091 72.1370 112° Southeast  Level Estimated
11:40PM 47.5603 72.3126 112° Southeast  Level Estimated
11:41PM 47.5111 72.4878 112° Southeast  Level Estimated
11:41PM 46.8970 74.9250 112° Southeast 537 618 35,000  Level FlightAware
11:41PM 46.8640 75.0210 117° Southeast 536 617 35,000  Level FlightAware
11:42PM 46.8200 75.1540 116° Southeast 536 617 35,000  Level FlightAware
11:43PM 46.7870 75.2540 116° Southeast 536 617 35,000  Level FlightAware
11:43PM 46.7410 75.3890 116° Southeast 536 617 35,000  Level FlightAware
11:44PM 46.7080 75.4890 116° Southeast 536 617 35,000  Level FlightAware
11:45PM 46.5340 75.6990 140° Southeast 533 613 35,000  Level FlightAware
11:46PM 46.4660 75.8380 125° Southeast 531 611 35,000  Level FlightAware
11:46PM 46.4030 75.9650 126° Southeast 531 611 35,000  Level FlightAware
11:47PM 46.3470 76.0780 126° Southeast 530 610 35,000  Level FlightAware
11:48PM 46.4100 75.9510 306° West 531 611 35,000  Level FlightAware
11:48PM 46.2280 76.3190 125° Southeast 529 609 35,000  Level FlightAware
11:49PM 46.1640 76.4450 126° Southeast 529 609 35,000  Level FlightAware
11:50PM 46.1240 76.5280 125° Southeast 529 609 35,000  Level FlightAware
11:50PM 46.0550 76.6610 127° Southeast 533 613 35,000  Level FlightAware
11:51PM 45.9920 76.7840 126° Southeast 534 615 35,000  Level FlightAware
11:52PM 45.9380 76.8910 126° Southeast 534 615 35,000  Level FlightAware
11:52PM 45.8850 76.9950 126° Southeast 535 616 35,000  Level FlightAware
11:53PM 45.8200 77.1210 126° Southeast 535 616 35,000  Level FlightAware
11:54PM 45.7610 77.2340 127° Southeast 535 616 35,000  Level FlightAware
11:55PM 45.6970 77.3590 126° Southeast 534 615 35,000  Level FlightAware
11:55PM 45.6330 77.4820 127° Southeast 534 615 35,000  Level FlightAware
11:56PM 45.5730 77.5950 127° Southeast 534 615 35,000  Level FlightAware
11:57PM 45.5070 77.7210 127° Southeast 534 615 35,000  Level FlightAware
11:57PM 45.4550 77.8200 127° Southeast 534 615 35,000  Level FlightAware
11:58PM 45.3960 77.9330 127° Southeast 533 613 35,000  Level FlightAware
11:59PM 45.3290 78.0580 127° Southeast 534 615 35,000  Level FlightAware
11:59PM 45.2630 78.1810 127° Southeast 538 619 35,000  Level FlightAware
12:00AM 45.1950 78.3070 127° Southeast 541 623 35,000  Level FlightAware
12:01AM 45.1340 78.4190 128° Southeast 541 623 35,000  Level FlightAware
12:01AM 45.0760 78.5110 132° Southeast 539 620 35,000  Level FlightAware
12:02AM 44.9990 78.6250 134° Southeast 538 619 35,000  Level FlightAware
12:03AM 44.9300 78.7250 134° Southeast 538 619 35,000  Level FlightAware
12:04AM 44.8530 78.8370 134° Southeast 538 619 35,000  Level FlightAware
12:04AM 44.7840 78.9370 134° Southeast 538 619 35,000  Level FlightAware
12:05AM 44.7130 79.0400 134° Southeast 536 617 35,000  Level FlightAware
12:06AM 44.6370 79.1490 134° Southeast 535 616 35,000  Level FlightAware
12:06AM 44.5870 79.2200 135° Southeast 536 617 35,000  Level FlightAware
12:07AM 44.5040 79.3380 135° Southeast 538 619 35,000  Level FlightAware
12:08AM 44.4730 79.3820 135° Southeast 537 618 35,000  Level FlightAware
12:08AM 44.4050 79.4800 134° Southeast 539 620 35,000 180 Level FlightAware
12:09AM 44.3340 79.5800 135° Southeast 541 623 35,300 600 Climbing FlightAware
12:10AM 44.2520 79.6960 135° Southeast 550 633 35,900 840 Climbing FlightAware
12:10AM 44.2020 79.7660 135° Southeast 550 633 36,400 900 Climbing FlightAware
12:11AM 44.1160 79.8870 135° Southeast 543 625 37,100 420 Climbing FlightAware
12:12AM 44.0450 79.9860 135° Southeast 542 624 37,100  Level FlightAware
12:12AM 43.9760 80.0820 135° Southeast 541 623 37,100  Level FlightAware
12:13AM 43.9030 80.1820 135° Southeast 541 623 37,100  Level FlightAware
12:14AM 43.8260 80.2890 135° Southeast 541 623 37,100  Level FlightAware
12:14AM 43.7550 80.3870 135° Southeast 543 625 37,100  Level FlightAware
12:15AM 43.7160 80.4390 136° Southeast 545 627 37,100  Level FlightAware
12:16AM 43.5790 80.6280 135° Southeast 545 627 37,100  Level FlightAware
12:17AM 43.5240 80.7030 135° Southeast 545 627 37,100  Level FlightAware
12:18AM 43.4520 80.8030 135° Southeast 545 627 37,100  Level FlightAware
12:18AM 43.3970 80.8790 135° Southeast 545 627 37,100  Level FlightAware
12:19AM 43.3430 80.9540 135° Southeast 545 627 37,100  Level FlightAware
12:20AM 43.2700 81.0540 135° Southeast 545 627 37,100  Level FlightAware
12:20AM 43.2150 81.1280 136° Southeast 545 627 37,100  Level FlightAware
12:21AM 43.1590 81.2050 135° Southeast 545 627 37,100  Level FlightAware
12:22AM 43.1050 81.2800 135° Southeast 545 627 37,100  Level FlightAware
12:22AM 43.0320 81.3800 135° Southeast 545 627 37,100  Level FlightAware
12:23AM 42.9410 81.5040 135° Southeast 545 627 37,100  Level FlightAware
12:24AM 42.8860 81.5780 135° Southeast 545 627 37,100  Level FlightAware
12:25AM 42.8140 81.6780 134° Southeast 545 627 37,100 -60 Level FlightAware
12:27AM 42.7083 81.9572 117° Southeast  Level Estimated
12:28AM 42.6493 82.1118 117° Southeast  Level Estimated
12:29AM 42.5901 82.2662 117° Southeast  Level Estimated
12:30AM 42.5307 82.4203 118° Southeast  Level Estimated
12:31AM 42.4711 82.5741 118° Southeast  Level Estimated
12:32AM 42.4113 82.7277 118° Southeast  Level Estimated
12:33AM 42.3513 82.8809 118° Southeast  Level Estimated
12:34AM 42.2911 83.0338 118° Southeast  Level Estimated
12:35AM 42.2306 83.1864 118° Southeast  Level Estimated
12:36AM 42.1700 83.3388 118° Southeast  Level Estimated
12:37AM 42.1092 83.4908 118° Southeast  Level Estimated
12:38AM 42.0481 83.6426 118° Southeast  Level Estimated
12:39AM 41.9869 83.7940 119° Southeast  Level Estimated
12:40AM 41.9255 83.9452 119° Southeast  Level Estimated
12:41AM 41.8638 84.0961 119° Southeast  Level Estimated
12:42AM 41.8020 84.2467 119° Southeast  Level Estimated
12:43AM 41.7400 84.3970 119° Southeast  Level Estimated
12:44AM 41.6778 84.5470 119° Southeast  Level Estimated
12:45AM 41.6154 84.6967 119° Southeast  Level Estimated
12:46AM 41.5528 84.8461 119° Southeast  Level Estimated
12:47AM 41.4900 84.9953 119° Southeast  Level Estimated
12:48AM 41.4270 85.1441 119° Southeast  Level Estimated
12:49AM 41.3638 85.2927 120° Southeast  Level Estimated
12:50AM 41.3004 85.4409 120° Southeast  Level Estimated
12:51AM 41.2369 85.5889 120° Southeast  Level Estimated
12:52AM 41.1731 85.7366 120° Southeast  Level Estimated
12:53AM 41.1092 85.8840 120° Southeast  Level Estimated
12:54AM 41.0450 86.0311 120° Southeast  Level Estimated
12:55AM 40.9807 86.1780 120° Southeast  Level Estimated
12:56AM 40.9162 86.3245 120° Southeast  Level Estimated
12:57AM 40.8515 86.4708 120° Southeast  Level Estimated
12:58AM 40.7867 86.6168 120° Southeast  Level Estimated
12:59AM 40.7216 86.7624 120° Southeast  Level Estimated
01:00AM 40.6564 86.9078 121° Southeast  Level Estimated
01:01AM 40.5909 87.0530 121° Southeast  Level Estimated
01:02AM 40.5253 87.1978 121° Southeast  Level Estimated
01:03AM 40.4596 87.3423 121° Southeast  Level Estimated
01:04AM 40.3936 87.4866 121° Southeast  Level Estimated
01:05AM 40.3275 87.6306 121° Southeast  Level Estimated
01:06AM 40.2611 87.7743 121° Southeast  Level Estimated
01:07AM 40.1946 87.9177 121° Southeast  Level Estimated
01:08AM 40.1280 88.0609 121° Southeast  Level Estimated
01:09AM 40.0611 88.2037 121° Southeast  Level Estimated
01:10AM 39.9941 88.3463 121° Southeast  Level Estimated
01:11AM 39.9269 88.4886 122° Southeast  Level Estimated
01:12AM 39.8595 88.6306 122° Southeast  Level Estimated
01:13AM 39.7920 88.7724 122° Southeast  Level Estimated
01:14AM 39.7243 88.9138 122° Southeast  Level Estimated
01:15AM 39.6564 89.0550 122° Southeast  Level Estimated
01:16AM 39.5883 89.1959 122° Southeast  Level Estimated
01:17AM 39.5201 89.3365 122° Southeast  Level Estimated
01:18AM 39.4517 89.4769 122° Southeast  Level Estimated
01:19AM 39.3831 89.6170 122° Southeast  Level Estimated
01:20AM 39.3144 89.7568 122° Southeast  Level Estimated
01:21AM 39.2455 89.8963 122° Southeast  Level Estimated
01:22AM 39.1764 90.0356 123° Southeast  Level Estimated
01:23AM 39.1072 90.1745 123° Southeast  Level Estimated
01:24AM 39.0378 90.3132 123° Southeast  Level Estimated
01:25AM 38.9682 90.4517 123° Southeast  Level Estimated
01:26AM 38.8985 90.5898 123° Southeast  Level Estimated
01:27AM 38.8286 90.7277 123° Southeast  Level Estimated
01:28AM 38.7586 90.8653 123° Southeast  Level Estimated
01:29AM 38.6884 91.0027 123° Southeast  Level Estimated
01:30AM 38.6180 91.1398 123° Southeast  Level Estimated
01:31AM 38.5475 91.2766 123° Southeast  Level Estimated
01:32AM 38.4768 91.4131 123° Southeast  Level Estimated
01:33AM 38.4059 91.5494 124° Southeast  Level Estimated
01:34AM 38.3349 91.6854 124° Southeast  Level Estimated
01:35AM 38.2638 91.8211 124° Southeast  Level Estimated
01:36AM 38.1924 91.9566 124° Southeast  Level Estimated
01:37AM 38.1210 92.0918 124° Southeast  Level Estimated
01:38AM 38.0493 92.2268 124° Southeast  Level Estimated
01:39AM 37.9776 92.3615 124° Southeast  Level Estimated
01:40AM 37.9056 92.4959 124° Southeast  Level Estimated
01:41AM 37.8335 92.6300 124° Southeast  Level Estimated
01:42AM 37.7613 92.7639 124° Southeast  Level Estimated
01:43AM 37.6889 92.8976 124° Southeast  Level Estimated
01:44AM 37.6164 93.0309 124° Southeast  Level Estimated
01:45AM 37.5437 93.1640 125° Southeast  Level Estimated
01:46AM 37.4708 93.2969 125° Southeast  Level Estimated
01:47AM 37.3979 93.4295 125° Southeast  Level Estimated
01:48AM 37.3247 93.5618 125° Southeast  Level Estimated
01:49AM 37.2514 93.6939 125° Southeast  Level Estimated
01:50AM 37.1780 93.8257 125° Southeast  Level Estimated
01:51AM 37.1044 93.9573 125° Southeast  Level Estimated
01:52AM 37.0307 94.0886 125° Southeast  Level Estimated
01:53AM 36.9569 94.2196 125° Southeast  Level Estimated
01:54AM 36.8829 94.3504 125° Southeast  Level Estimated
01:55AM 36.8087 94.4810 125° Southeast  Level Estimated
01:56AM 36.7344 94.6113 125° Southeast  Level Estimated
01:57AM 36.6600 94.7413 125° Southeast  Level Estimated
01:58AM 36.5854 94.8711 126° Southeast  Level Estimated
01:59AM 36.5107 95.0006 126° Southeast  Level Estimated
02:00AM 36.4358 95.1299 126° Southeast  Level Estimated
02:01AM 36.3608 95.2589 126° Southeast  Level Estimated
02:02AM 36.2857 95.3877 126° Southeast  Level Estimated
02:03AM 36.2104 95.5163 126° Southeast  Level Estimated
02:04AM 36.1350 95.6446 126° Southeast  Level Estimated
02:05AM 36.0595 95.7726 126° Southeast  Level Estimated
02:06AM 35.9838 95.9004 126° Southeast  Level Estimated
02:07AM 35.9080 96.0280 126° Southeast  Level Estimated
02:08AM 35.8320 96.1553 126° Southeast  Level Estimated
02:09AM 35.7560 96.2824 126° Southeast  Level Estimated
02:10AM 35.6797 96.4092 126° Southeast  Level Estimated
02:11AM 35.6034 96.5358 127° Southeast  Level Estimated
02:12AM 35.5269 96.6621 127° Southeast  Level Estimated
02:13AM 35.4503 96.7882 127° Southeast  Level Estimated
02:14AM 35.3735 96.9141 127° Southeast  Level Estimated
02:15AM 35.2967 97.0397 127° Southeast  Level Estimated
02:16AM 35.2197 97.1651 127° Southeast  Level Estimated
02:17AM 35.1425 97.2902 127° Southeast  Level Estimated
02:18AM 35.0653 97.4151 127° Southeast  Level Estimated
02:19AM 34.9879 97.5398 127° Southeast  Level Estimated
02:20AM 34.9104 97.6642 127° Southeast  Level Estimated
02:21AM 34.8327 97.7884 127° Southeast  Level Estimated
02:22AM 34.7549 97.9124 127° Southeast  Level Estimated
02:23AM 34.6770 98.0361 127° Southeast  Level Estimated
02:24AM 34.5990 98.1596 127° Southeast  Level Estimated
02:25AM 34.5209 98.2829 128° Southeast  Level Estimated
02:26AM 34.4426 98.4059 128° Southeast  Level Estimated
02:27AM 34.3642 98.5287 128° Southeast  Level Estimated
02:28AM 34.2857 98.6513 128° Southeast  Level Estimated
02:29AM 34.2071 98.7737 128° Southeast  Level Estimated
02:30AM 34.1283 98.8958 128° Southeast  Level Estimated
02:31AM 34.0494 99.0177 128° Southeast  Level Estimated
02:32AM 33.9704 99.1393 128° Southeast  Level Estimated
02:33AM 33.8913 99.2608 128° Southeast  Level Estimated
02:34AM 33.8121 99.3820 128° Southeast  Level Estimated
02:35AM 33.7327 99.5030 128° Southeast  Level Estimated
02:36AM 33.6533 99.6237 128° Southeast  Level Estimated
02:37AM 33.5737 99.7443 128° Southeast  Level Estimated
02:38AM 33.4939 99.8646 128° Southeast  Level Estimated
02:39AM 33.4141 99.9847 129° Southeast  Level Estimated
02:40AM 33.3342 100.1046 129° Southeast  Level Estimated
02:41AM 33.2541 100.2242 129° Southeast  Level Estimated
02:41AM 33.0740 104.2260 129° Southeast 485 558 33,100  Level FlightAware
02:42AM 33.1740 100.3437 129° Southeast  Level Estimated
02:42AM 32.9780 104.2310 177° South 486 559 33,100  Level FlightAware
02:42AM 32.8800 104.2350 178° South 484 557 33,100  Level FlightAware
02:43AM 32.8020 104.2390 178° South 483 556 33,100  Level FlightAware
02:44AM 32.7090 104.2440 177° South 483 556 33,100  Level FlightAware
02:44AM 32.6110 104.2490 178° South 483 556 33,100  Level FlightAware
02:45AM 32.5380 104.2530 177° South 484 557 33,100  Level FlightAware
02:46AM 32.4400 104.2570 178° South 484 557 33,100  Level FlightAware
02:46AM 32.3510 104.2620 177° South 485 558 33,100  Level FlightAware
02:47AM 32.2520 104.2670 178° South 486 559 33,100  Level FlightAware
02:48AM 32.1620 104.2710 178° South 487 560 33,100 660 Level FlightAware
02:49AM 32.0630 104.2760 178° South 488 562 34,100 1,500 Climbing FlightAware
02:49AM 31.9660 104.2810 177° South 489 563 35,300 1,260 Climbing FlightAware
02:50AM 31.8720 104.2850 178° South 496 571 35,900 960 Climbing FlightAware
02:51AM 31.7790 104.2900 177° South 503 579 36,600 840 Climbing FlightAware
02:51AM 31.6720 104.2950 178° South 507 583 37,100 300 Climbing FlightAware
02:52AM 31.5770 104.2990 178° South 509 586 37,100  Level FlightAware
02:53AM 31.4740 104.3040 178° South 509 586 37,100  Level FlightAware
02:53AM 31.3840 104.3090 177° South 508 585 37,100  Level FlightAware
02:54AM 31.2950 104.3130 178° South 508 585 37,100  Level FlightAware
02:55AM 31.2020 104.3170 178° South 508 585 37,100  Level FlightAware
02:55AM 31.0960 104.3220 178° South 507 583 37,100  Level FlightAware
02:56AM 31.0130 104.3260 178° South 507 583 37,100  Level FlightAware
02:57AM 30.9190 104.3300 178° South 506 582 37,100  Level FlightAware
02:57AM 30.8190 104.3500 170° South 504 580 37,100  Level FlightAware
02:58AM 30.7380 104.3800 162° South 502 578 37,100  Level FlightAware
02:59AM 30.6460 104.4160 161° South 503 579 37,100  Level FlightAware
02:59AM 30.5520 104.4520 162° South 504 580 37,100  Level FlightAware
03:01AM 30.3440 104.5350 161° South 504 580 37,100  Level FlightAware
03:02AM 30.2620 104.5620 164° South 500 575 37,100  Level FlightAware
03:03AM 30.1240 104.6140 162° South 499 574 37,100  Level FlightAware
03:03AM 30.0330 104.6490 162° South 500 575 37,100  Level FlightAware
03:04AM 29.9310 104.6890 161° South 499 574 37,100  Level FlightAware
03:05AM 29.8420 104.7230 162° South 499 574 37,100  Level FlightAware
03:06AM 29.7610 104.7550 161° South 499 574 37,100  Level FlightAware
03:06AM 29.6940 104.7820 161° South 499 574 37,100  Level FlightAware
03:07AM 29.6050 104.8170 161° South 499 574 37,100  Level FlightAware
03:08AM 29.5390 104.8440 160° South 499 574 37,100  Level FlightAware
03:08AM 29.4480 104.8800 161° South 499 574 37,100  Level FlightAware
03:09AM 29.3810 104.9060 161° South 499 574 37,100  Level FlightAware
03:10AM 29.2920 104.9410 161° South 499 574 37,100  Level FlightAware
03:10AM 29.2250 104.9680 161° South 499 574 37,100  Level FlightAware
03:11AM 29.1560 104.9950 161° South 499 574 37,100  Level FlightAware
03:12AM 29.0640 105.0310 161° South 499 574 37,100  Level FlightAware
03:12AM 28.9970 105.0570 161° South 499 574 37,100  Level FlightAware
03:13AM 28.7350 105.1490 163° South 499 574 37,100  Level FlightAware
03:14AM 28.6440 105.1840 161° South 499 574 37,100  Level FlightAware
03:16AM 28.4700 105.2530 161° South 499 574 37,100  Level FlightAware
03:16AM 28.4010 105.2800 161° South 499 574 37,100  Level FlightAware
03:17AM 28.3100 105.3150 161° South 499 574 37,100  Level FlightAware
03:18AM 28.2420 105.3420 161° South 499 574 37,100  Level FlightAware
03:19AM 28.1530 105.3770 161° South 499 574 37,100  Level FlightAware
03:19AM 28.0840 105.4040 161° South 499 574 37,100  Level FlightAware
03:20AM 27.9730 105.4470 161° South 499 574 37,100  Level FlightAware
03:21AM 27.9060 105.4730 161° South 499 574 37,100  Level FlightAware
03:22AM 27.8170 105.5080 161° South 499 574 37,100  Level FlightAware
03:22AM 27.7500 105.5340 161° South 499 574 37,100  Level FlightAware
03:25AM 27.5811 105.8183 124° Southeast  Level Estimated
03:26AM 27.5096 105.9381 124° Southeast  Level Estimated
03:27AM 27.4379 106.0579 124° Southeast  Level Estimated
03:28AM 27.3662 106.1774 124° Southeast  Level Estimated
03:29AM 27.2943 106.2968 124° Southeast  Level Estimated
03:30AM 27.2224 106.4160 124° Southeast  Level Estimated
03:31AM 27.1503 106.5351 124° Southeast  Level Estimated
03:32AM 27.0782 106.6541 124° Southeast  Level Estimated
03:33AM 27.0059 106.7728 124° Southeast  Level Estimated
03:34AM 26.9336 106.8915 124° Southeast  Level Estimated
03:35AM 26.8611 107.0099 124° Southeast  Level Estimated
03:36AM 26.7886 107.1283 124° Southeast  Level Estimated
03:37AM 26.7160 107.2464 125° Southeast  Level Estimated
03:38AM 26.6432 107.3644 125° Southeast  Level Estimated
03:39AM 26.5704 107.4823 125° Southeast  Level Estimated
03:40AM 26.4974 107.6000 125° Southeast  Level Estimated
03:41AM 26.4244 107.7176 125° Southeast  Level Estimated
03:42AM 26.3513 107.8350 125° Southeast  Level Estimated
03:43AM 26.2781 107.9523 125° Southeast  Level Estimated
03:44AM 26.2048 108.0694 125° Southeast  Level Estimated
03:45AM 26.1313 108.1864 125° Southeast  Level Estimated
03:46AM 26.0578 108.3032 125° Southeast  Level Estimated
03:47AM 25.9842 108.4199 125° Southeast  Level Estimated
03:48AM 25.9105 108.5365 125° Southeast  Level Estimated
03:49AM 25.8368 108.6528 125° Southeast  Level Estimated
03:50AM 25.7629 108.7691 125° Southeast  Level Estimated
03:51AM 25.6889 108.8852 125° Southeast  Level Estimated
03:52AM 25.6148 109.0012 125° Southeast  Level Estimated
03:53AM 25.5407 109.1170 125° Southeast  Level Estimated
03:54AM 25.4664 109.2326 125° Southeast  Level Estimated
03:55AM 25.3921 109.3482 125° Southeast  Level Estimated
03:56AM 25.3177 109.4635 125° Southeast  Level Estimated
03:57AM 25.2431 109.5788 126° Southeast  Level Estimated
03:58AM 25.1685 109.6939 126° Southeast  Level Estimated
03:59AM 25.0938 109.8089 126° Southeast  Level Estimated
03:59AM 25.0450 110.3000 126° Southeast 476 548 37,100  Level FlightAware
04:00AM 25.0191 109.9237 126° Southeast  Level Estimated
04:00AM 25.0080 110.3690 121° Southeast 476 548 37,100  Level FlightAware
04:01AM 24.9610 110.4540 121° Southeast 476 548 37,100  Level FlightAware
04:01AM 24.9260 110.5200 120° Southeast 476 548 37,100  Level FlightAware
04:02AM 24.8680 110.6260 121° Southeast 476 548 37,100  Level FlightAware
04:03AM 24.8330 110.6900 121° Southeast 476 548 37,100  Level FlightAware
04:04AM 24.7870 110.7740 121° Southeast 476 548 37,100 -840 Level FlightAware
04:04AM 24.5800 110.8520 161° South 469 540 35,800 -840 Descending FlightAware
04:05AM 24.5200 110.9240 132° Southeast 469 540 35,800  Level FlightAware
04:06AM 24.4600 110.9950 133° Southeast 469 540 35,800 -480 Level FlightAware
04:07AM 24.3700 111.0920 136° Southeast 473 544 35,100 -540 Descending FlightAware
04:07AM 24.3240 111.1450 134° Southeast 473 544 35,100  Level FlightAware
04:08AM 24.2790 111.1990 132° Southeast 473 544 35,100  Level FlightAware
04:09AM 24.1690 111.3170 136° Southeast 461 531 35,100  Level FlightAware
04:10AM 24.1220 111.3700 134° Southeast 461 531 35,100 -660 Level FlightAware
04:10AM 24.0370 111.4560 137° Southeast 462 532 34,200 -720 Descending FlightAware
04:11AM 23.9810 111.5180 135° Southeast 460 529 34,100 -420 Descending FlightAware
04:12AM 23.9170 111.5860 136° Southeast 455 524 33,600 -840 Descending FlightAware
04:12AM 23.8810 111.6560 119° Southeast 454 522 33,100 -420 Descending FlightAware
04:13AM 23.8240 111.7580 121° Southeast 472 543 33,100  Level FlightAware
04:14AM 23.7660 111.8640 121° Southeast 475 547 33,100  Level FlightAware
04:14AM 23.7240 111.9380 122° Southeast 476 548 33,100  Level FlightAware
04:17AM 23.6190 112.1300 121° Southeast 478 550 33,100 -600 Level FlightAware
04:17AM 23.5360 112.2780 121° Southeast 473 544 31,600 -1,500 Descending FlightAware
04:18AM 23.4800 112.3770 122° Southeast 470 541 30,900 -900 Descending FlightAware
04:19AM 23.4330 112.4610 121° Southeast 468 539 30,300 -960 Descending FlightAware
04:19AM 23.3910 112.5350 122° Southeast 467 537 29,700 -780 Descending FlightAware
04:20AM 23.3460 112.6170 121° Southeast 458 527 29,300 -420 Descending FlightAware
04:21AM 23.2840 112.7260 122° Southeast 454 522 29,100 -180 Descending FlightAware
04:22AM 23.2380 112.8080 121° Southeast 454 522 29,100  Level FlightAware
04:22AM 23.1950 112.8850 121° Southeast 458 527 29,100  Level FlightAware
04:23AM 23.1450 112.9730 122° Southeast 458 527 29,100  Level FlightAware
04:24AM 23.1000 113.0510 122° Southeast 457 526 29,100  Level FlightAware
04:24AM 23.0530 113.1350 121° Southeast 458 527 29,100  Level FlightAware
04:25AM 23.0070 113.1870 134° Southeast 456 525 29,100 -420 Level FlightAware
04:26AM 22.9290 113.2230 157° South 452 520 28,600 -720 Descending FlightAware
04:26AM 22.8440 113.2530 162° South 444 511 28,100 -840 Descending FlightAware
04:27AM 22.7650 113.2800 163° South 438 504 27,500 -840 Descending FlightAware
04:28AM 22.6850 113.3070 163° South 431 496 27,000 -960 Descending FlightAware
04:28AM 22.6000 113.3370 162° South 426 490 26,200 -1,020 Descending FlightAware
04:29AM 22.5340 113.3600 162° South 420 483 25,700 -900 Descending FlightAware
04:30AM 22.4600 113.3850 163° South 415 478 25,100 -840 Descending FlightAware
04:30AM 22.3860 113.4100 163° South 412 474 24,600 -780 Descending FlightAware
04:31AM 22.3200 113.4330 162° South 409 471 24,100 -540 Descending FlightAware
04:32AM 22.2590 113.4540 162° South 408 470 24,000 -120 Descending FlightAware
04:33AM 22.1670 113.4860 162° South 408 470 24,000  Level FlightAware
04:33AM 22.1120 113.5060 161° South 408 470 24,000 -540 Level FlightAware
04:34AM 22.0490 113.5310 160° South 23,000 -540 Descending FlightAware
04:37AM 22.2379 113.8096 54° Northeast  Level Estimated
04:38AM 22.3089 113.9146 54° Northeast  Level Estimated
04:39AM 22.3089 113.9146 110° East  Level Estimated
04:40AM 22.3089 113.9146 110° East  Level Estimated
04:41AM 22.3089 113.9146 110° East  Level Estimated
04:42AM 22.3089 113.9146 110° East  Level Estimated
04:43AM 22.3089 113.9146 110° East  Level Estimated
04:44AM 22.3089 113.9146 110° East  Level Estimated
04:45AM 22.3089 113.9146 110° East  Level Estimated
04:46AM 22.3089 113.9146 110° East  Level Estimated
04:47AM 22.3089 113.9146 110° East  Level Estimated
04:48AM 22.3089 113.9146 110° East  Level Estimated
04:49AM 22.3089 113.9146 110° East  Level Estimated
04:50AM 22.3089 113.9146 110° East  Level Estimated
04:51AM 22.3089 113.9146 110° East  Level Estimated
04:51AM 21.8900 113.8900 110° East 325 374 15,000  Level FlightAware
04:52AM 21.9590 113.9310 29° Northeast 330 380 14,900 -240 Descending FlightAware
04:53AM 22.0000 113.9560 29° Northeast 326 375 14,700 -480 Descending FlightAware
04:53AM 22.0590 113.9940 31° Northeast 328 377 14,300 -600 Descending FlightAware
04:54AM 22.0690 114.0070 50° Northeast 327 376 14,200 -1,140 Descending FlightAware
04:54AM 22.0820 114.0380 66° East 323 372 13,800 -1,440 Descending FlightAware
04:55AM 22.1010 114.1010 72° East 321 369 12,800 -1,260 Descending FlightAware
04:55AM 22.1040 114.1560 87° East 314 361 12,100 -1,200 Descending FlightAware
04:56AM 22.1080 114.2370 87° East 308 354 11,200 -1,080 Descending FlightAware
04:57AM 22.1090 114.2870 89° East 306 352 10,500 -1,140 Descending FlightAware
04:57AM 22.1110 114.3300 87° East 304 350 9,900 -720 Descending FlightAware
04:58AM 22.1130 114.3810 88° East 301 346 9,800 -120 Descending FlightAware
04:58AM 22.1140 114.4120 88° East 301 346 9,800  Level FlightAware
04:58AM 22.1150 114.4420 88° East 301 346 9,800 -1,080 Level FlightAware
05:01AM 22.2100 114.1845 292° West  Level Estimated
05:02AM 22.2565 114.0577 292° West  Level Estimated
05:02AM 22.4070 114.2310 292° West 213 245 5,600  Level FlightAware
05:02AM 22.4100 114.2180 284° West 209 241 5,500 -900 Descending FlightAware
05:03AM 22.4040 114.1880 258° West 207 238 5,000 -1,080 Descending FlightAware
05:03AM 22.3960 114.1620 252° West 204 235 4,500 -1,140 Descending FlightAware
05:03AM 22.3910 114.1460 251° West 204 235 4,200 -1,200 Descending FlightAware
05:04AM 22.3870 114.1350 249° West 202 232 4,000 -1,140 Descending FlightAware
05:04AM 22.3810 114.1140 253° West 199 229 3,600 -1,140 Descending FlightAware
05:04AM 22.3760 114.1000 249° West 198 228 3,300 -1,140 Descending FlightAware
05:05AM 22.3670 114.0730 250° West 195 224 2,800 -960 Descending FlightAware
05:05AM 22.3590 114.0480 251° West 194 223 2,400 -1,020 Descending FlightAware
05:06AM 22.3510 114.0230 251° West 175 201 1,900 -900 Descending FlightAware
05:06AM 22.3440 114.0020 250° West 173 199 1,600 -900 Descending FlightAware
05:07AM 22.3370 113.9790 252° West 156 180 1,100 -900 Descending FlightAware
05:07AM 22.3300 113.9580 250° West 152 175 800 -780 Descending FlightAware
05:08AM 22.3240 113.9380 252° West 154 177 400 -900 Descending FlightAware
05:08AM 22.3210 113.9290 250° West 156 180 200 -960 Descending FlightAware
05:08AM 22.3160 113.9130 251° West 82 94 -480 Descending FlightAware
05:08AM 22.3140 113.9080 247° West 43 49  Level FlightAware
05:09AM 22.3130 113.9070 223° Southwest 34 39  Level FlightAware
05:09AM 22.3110 113.9050 223° Southwest 33 38  Level FlightAware
05:09AM 22.3110 113.9060 90° East 31 36  Level FlightAware
05:10AM 22.3120 113.9080 62° Northeast 18 21  Level FlightAware
05:10AM 22.3120 113.9100 90° East 21 24  Level FlightAware
05:11AM 22.3140 113.9150 67° East 27 31  Level FlightAware
05:12AM 22.3150 113.9190 75° East 26 30  Level FlightAware
05:12AM 22.3140 113.9190 180° South 30 35  Level FlightAware
05:12AM 22.3130 113.9200 137° Southeast 16 18  Level FlightAware
05:13AM 22.3100 113.9200 180° South 19 22  Level FlightAware
05:13AM 22.3090 113.9210 137° Southeast 19 22  Level FlightAware
05:13AM 22.3070 113.9220 155° Southeast 24 28  Level FlightAware
05:14AM 22.3070 113.9230 90° East 31 36  Level FlightAware
05:14AM 22.3080 113.9250 62° Northeast 29 33  Level FlightAware
05:15AM 22.3080 113.9260 90° East 20 23  Level FlightAware
05:16AM 22.3080 113.9270 90° East 20 23  Level FlightAware
05:16AM 22.3090 113.9270 360° North 18 21  Level FlightAware
05:17AM 22.3110 113.9280 25° Northeast 18 21  Level FlightAware
05:18AM 22.3120 113.9290 43° Northeast 14 16  Level FlightAware
05:18AM 22.3120 113.9300 90° East 2 2  Level FlightAware
05:21AM 22.3089 113.9146 258° West  Level Estimated
05:21AM 22.3120 113.9310 258° West 21 24  Level FlightAware
05:21AM 22.3130 113.9330 62° Northeast 24 28  Level FlightAware
05:22AM 22.3130 113.9340 90° East 17 20  Level FlightAware